createdAt,value
2022-10-26T00:02:06.254Z,9.92
2022-10-26T00:04:35.986Z,9.92
2022-10-26T00:07:05.725Z,9.92
2022-10-26T00:09:35.541Z,9.92
2022-10-26T00:12:08.219Z,9.91
2022-10-26T00:14:38.146Z,9.91
2022-10-26T00:17:07.879Z,9.90
2022-10-26T00:19:38.275Z,9.90
2022-10-26T00:22:07.996Z,9.86
2022-10-26T00:24:37.570Z,9.85
2022-10-26T00:27:09.756Z,9.86
2022-10-26T00:29:39.369Z,9.85
2022-10-26T00:32:09.423Z,9.87
2022-10-26T00:34:39.374Z,9.87
2022-10-26T00:37:09.834Z,9.88
2022-10-26T00:39:39.850Z,9.89
2022-10-26T00:42:14.316Z,9.90
2022-10-26T00:45:02.764Z,9.91
2022-10-26T00:47:39.095Z,9.93
2022-10-26T00:50:13.614Z,9.93
2022-10-26T00:52:44.044Z,9.94
2022-10-26T00:55:14.218Z,9.96
2022-10-26T00:57:46.446Z,9.96
2022-10-26T01:00:17.035Z,9.97
2022-10-26T01:02:48.796Z,9.99
2022-10-26T01:05:20.853Z,9.99
2022-10-26T01:07:51.517Z,10.00
2022-10-26T01:10:21.620Z,10.02
2022-10-26T01:12:54.248Z,10.05
2022-10-26T01:15:27.332Z,10.06
2022-10-26T01:18:01.125Z,10.08
2022-10-26T01:20:50.584Z,10.11
2022-10-26T01:23:29.027Z,10.11
2022-10-26T01:26:27.568Z,10.12
2022-10-26T01:29:24.895Z,10.11
2022-10-26T01:32:02.709Z,10.11
2022-10-26T01:34:37.739Z,10.13
2022-10-26T01:37:13.671Z,10.15
2022-10-26T01:39:49.623Z,10.21
2022-10-26T01:42:21.171Z,10.19
2022-10-26T01:44:54.809Z,10.21
2022-10-26T01:47:28.953Z,10.20
2022-10-26T01:50:01.259Z,10.23
2022-10-26T01:52:31.449Z,10.22
2022-10-26T01:55:05.740Z,10.20
2022-10-26T01:57:38.065Z,10.19
2022-10-26T02:00:10.988Z,10.21
2022-10-26T02:03:04.679Z,10.21
2022-10-26T02:05:54.939Z,10.30
2022-10-26T02:08:38.019Z,10.27
2022-10-26T02:11:20.336Z,10.26
2022-10-26T02:13:53.775Z,10.30
2022-10-26T02:16:30.124Z,10.26
2022-10-26T02:19:08.368Z,10.23
2022-10-26T02:21:40.821Z,10.24
2022-10-26T02:24:15.447Z,10.24
2022-10-26T02:26:50.048Z,10.22
2022-10-26T02:29:22.066Z,10.21
2022-10-26T02:31:53.159Z,10.21
2022-10-26T02:34:30.352Z,10.18
2022-10-26T02:37:03.217Z,10.16
2022-10-26T02:39:36.675Z,10.10
2022-10-26T02:42:09.002Z,10.14
2022-10-26T02:44:44.763Z,10.09
2022-10-26T02:47:14.919Z,10.08
2022-10-26T02:49:47.692Z,10.11
2022-10-26T02:52:24.030Z,10.12
2022-10-26T02:54:58.023Z,10.11
2022-10-26T02:57:32.705Z,10.10
2022-10-26T03:00:03.949Z,10.07
2022-10-26T03:02:33.496Z,10.07
2022-10-26T03:05:13.474Z,10.04
2022-10-26T03:07:43.323Z,10.04
2022-10-26T03:10:14.058Z,10.03
2022-10-26T03:12:43.671Z,10.02
2022-10-26T03:15:13.718Z,9.99
2022-10-26T03:17:43.423Z,9.99
2022-10-26T03:20:16.637Z,10.02
2022-10-26T03:22:46.162Z,10.02
2022-10-26T03:25:15.848Z,10.02
2022-10-26T03:27:46.251Z,10.06
2022-10-26T03:30:16.255Z,10.10
2022-10-26T03:32:46.071Z,10.15
2022-10-26T03:35:18.425Z,10.17
2022-10-26T03:37:48.620Z,10.18
2022-10-26T03:40:18.847Z,10.24
2022-10-26T03:42:48.773Z,10.25
2022-10-26T03:45:18.920Z,10.29
2022-10-26T03:47:49.908Z,10.27
2022-10-26T03:50:23.876Z,10.28
2022-10-26T03:52:53.450Z,10.29
2022-10-26T03:55:23.049Z,10.34
2022-10-26T03:57:52.855Z,10.35
2022-10-26T04:00:22.589Z,10.36
2022-10-26T04:02:57.900Z,10.43
2022-10-26T04:05:31.934Z,10.45
2022-10-26T04:08:03.388Z,10.47
2022-10-26T04:10:33.121Z,10.51
2022-10-26T04:13:03.013Z,10.49
2022-10-26T04:15:32.723Z,10.54
2022-10-26T04:18:03.987Z,10.53
2022-10-26T04:20:39.086Z,10.57
2022-10-26T04:23:10.115Z,10.58
2022-10-26T04:25:39.842Z,10.61
2022-10-26T04:28:10.666Z,10.62
2022-10-26T04:30:41.041Z,10.63
2022-10-26T04:33:10.903Z,10.63
2022-10-26T04:35:43.634Z,10.65
2022-10-26T04:38:13.484Z,10.69
2022-10-26T04:40:43.741Z,10.71
2022-10-26T04:43:13.958Z,10.72
2022-10-26T04:45:43.769Z,10.72
2022-10-26T04:48:16.414Z,10.74
2022-10-26T04:50:48.645Z,10.79
2022-10-26T04:53:18.245Z,10.77
2022-10-26T04:55:47.839Z,10.79
2022-10-26T04:58:17.903Z,10.79
2022-10-26T05:00:47.679Z,10.79
2022-10-26T05:03:17.224Z,10.83
2022-10-26T05:05:50.393Z,10.84
2022-10-26T05:08:20.146Z,10.86
2022-10-26T05:10:51.779Z,10.87
2022-10-26T05:13:21.420Z,10.91
2022-10-26T05:15:51.042Z,10.92
2022-10-26T05:18:20.642Z,10.96
2022-10-26T05:20:55.867Z,11.00
2022-10-26T05:23:25.998Z,11.03
2022-10-26T05:25:55.634Z,11.05
2022-10-26T05:28:25.232Z,11.09
2022-10-26T05:30:54.769Z,11.21
2022-10-26T05:33:24.524Z,11.19
2022-10-26T05:35:59.363Z,11.21
2022-10-26T05:38:29.057Z,11.23
2022-10-26T05:40:59.172Z,11.24
2022-10-26T05:43:28.782Z,11.24
2022-10-26T05:45:58.518Z,11.25
2022-10-26T05:48:28.359Z,11.24
2022-10-26T05:51:02.035Z,11.27
2022-10-26T05:53:31.497Z,11.24
2022-10-26T05:56:04.056Z,11.22
2022-10-26T05:58:39.389Z,11.24
2022-10-26T06:01:23.260Z,11.20
2022-10-26T06:04:02.409Z,11.17
2022-10-26T06:06:42.679Z,11.14
2022-10-26T06:09:13.894Z,11.15
2022-10-26T06:11:44.645Z,11.11
2022-10-26T06:14:15.123Z,11.16
2022-10-26T06:16:58.178Z,11.13
2022-10-26T06:19:37.575Z,11.11
2022-10-26T06:22:24.767Z,11.16
2022-10-26T06:25:04.494Z,11.13
2022-10-26T06:27:44.682Z,11.11
2022-10-26T06:30:15.086Z,11.12
2022-10-26T06:32:50.209Z,11.08
2022-10-26T06:35:30.073Z,11.04
2022-10-26T06:38:07.292Z,11.04
2022-10-26T06:40:41.085Z,11.06
2022-10-26T06:43:15.453Z,11.06
2022-10-26T06:45:50.649Z,11.10
2022-10-26T06:48:28.366Z,11.11
2022-10-26T06:50:58.763Z,11.16
2022-10-26T06:53:36.659Z,11.16
2022-10-26T06:56:06.899Z,11.18
2022-10-26T06:58:39.139Z,11.18
2022-10-26T07:01:09.729Z,11.20
2022-10-26T07:03:41.589Z,11.19
2022-10-26T07:06:12.901Z,11.19
2022-10-26T07:08:45.658Z,11.18
2022-10-26T07:11:15.466Z,11.21
2022-10-26T07:13:45.108Z,11.25
2022-10-26T07:16:14.764Z,11.31
2022-10-26T07:18:46.224Z,11.43
2022-10-26T07:21:15.855Z,11.47
2022-10-26T07:23:48.029Z,11.55
2022-10-26T07:26:18.241Z,11.56
2022-10-26T07:28:51.501Z,11.63
2022-10-26T07:31:21.250Z,11.69
2022-10-26T07:33:50.836Z,11.78
2022-10-26T07:36:20.547Z,11.88
2022-10-26T07:38:54.663Z,12.00
2022-10-26T07:41:24.666Z,12.17
2022-10-26T07:43:54.280Z,12.21
2022-10-26T07:46:23.937Z,12.32
2022-10-26T07:48:53.671Z,12.37
2022-10-26T07:51:25.838Z,12.49
2022-10-26T07:53:58.133Z,12.59
2022-10-26T07:56:28.815Z,12.63
2022-10-26T07:58:58.757Z,12.76
2022-10-26T08:01:29.056Z,12.84
2022-10-26T08:03:59.206Z,13.04
2022-10-26T08:06:28.994Z,13.22
2022-10-26T08:09:01.176Z,13.22
2022-10-26T08:11:31.192Z,13.26
2022-10-26T08:14:00.953Z,13.43
2022-10-26T08:16:31.381Z,13.51
2022-10-26T08:19:00.914Z,13.57
2022-10-26T08:21:45.878Z,13.69
2022-10-26T08:24:18.159Z,13.84
2022-10-26T08:26:49.208Z,13.86
2022-10-26T08:29:18.828Z,13.91
2022-10-26T08:31:50.374Z,14.04
2022-10-26T08:34:19.994Z,14.14
2022-10-26T08:36:50.410Z,14.17
2022-10-26T08:39:23.178Z,14.36
2022-10-26T08:41:57.623Z,14.51
2022-10-26T08:44:32.944Z,14.59
2022-10-26T08:47:08.830Z,14.75
2022-10-26T08:49:46.192Z,14.83
2022-10-26T08:52:20.784Z,14.86
2022-10-26T08:54:57.187Z,14.84
2022-10-26T08:57:30.892Z,14.89
2022-10-26T09:00:04.334Z,14.85
2022-10-26T09:02:33.950Z,14.85
2022-10-26T09:05:05.423Z,14.93
2022-10-26T09:07:49.085Z,15.03
2022-10-26T09:10:37.930Z,15.23
2022-10-26T09:13:14.275Z,15.34
2022-10-26T09:15:56.944Z,15.50
2022-10-26T09:18:38.154Z,15.48
2022-10-26T09:21:18.791Z,15.52
2022-10-26T09:24:01.143Z,15.63
2022-10-26T09:26:42.212Z,15.72
2022-10-26T09:29:16.494Z,15.76
2022-10-26T09:31:51.036Z,15.96
2022-10-26T09:34:29.928Z,16.13
2022-10-26T09:36:59.661Z,16.28
2022-10-26T09:39:39.624Z,16.42
2022-10-26T09:42:20.128Z,16.48
2022-10-26T09:44:57.358Z,16.58
2022-10-26T09:47:35.118Z,16.52
2022-10-26T09:50:18.623Z,16.49
2022-10-26T09:52:48.770Z,16.41
2022-10-26T09:55:20.986Z,16.49
2022-10-26T09:57:56.704Z,16.41
2022-10-26T10:00:28.882Z,16.50
2022-10-26T10:02:59.663Z,16.48
2022-10-26T10:05:51.796Z,16.51
2022-10-26T10:08:24.549Z,16.49
2022-10-26T10:10:59.227Z,16.45
2022-10-26T10:13:34.292Z,16.42
2022-10-26T10:16:08.307Z,16.43
2022-10-26T10:18:39.242Z,16.33
2022-10-26T10:21:10.350Z,16.38
2022-10-26T10:23:52.073Z,16.30
2022-10-26T10:26:22.077Z,16.33
2022-10-26T10:29:03.945Z,16.31
2022-10-26T10:31:35.858Z,16.33
2022-10-26T10:34:18.660Z,16.45
2022-10-26T10:36:48.915Z,16.51
2022-10-26T10:39:37.799Z,16.56
2022-10-26T10:42:10.692Z,16.74
2022-10-26T10:44:43.064Z,16.88
2022-10-26T10:47:22.699Z,16.93
2022-10-26T10:50:03.715Z,17.09
2022-10-26T10:55:21.121Z,17.27
2022-10-26T10:58:11.719Z,17.52
2022-10-26T11:00:49.522Z,17.61
2022-10-26T11:03:35.707Z,17.48
2022-10-26T11:06:14.026Z,17.74
2022-10-26T11:08:49.116Z,17.72
2022-10-26T11:11:23.242Z,17.56
2022-10-26T11:13:58.513Z,17.64
2022-10-26T11:16:35.005Z,17.62
2022-10-26T11:19:15.661Z,17.75
2022-10-26T11:21:50.078Z,17.75
2022-10-26T11:24:25.860Z,17.77
2022-10-26T11:27:01.644Z,17.91
2022-10-26T11:29:48.833Z,17.79
2022-10-26T11:32:25.371Z,17.65
2022-10-26T11:35:01.941Z,17.69
2022-10-26T11:37:37.722Z,17.71
2022-10-26T11:40:25.741Z,17.92
2022-10-26T11:43:06.790Z,18.00
2022-10-26T11:45:40.898Z,17.92
2022-10-26T11:48:18.694Z,18.24
2022-10-26T11:50:53.356Z,18.29
2022-10-26T11:56:04.883Z,18.38
2022-10-26T11:58:35.961Z,18.63
2022-10-26T12:01:10.944Z,18.82
2022-10-26T12:03:48.739Z,18.77
2022-10-26T12:06:22.968Z,18.92
2022-10-26T12:08:57.575Z,19.07
2022-10-26T12:11:39.649Z,19.17
2022-10-26T12:14:20.861Z,18.84
2022-10-26T12:16:59.214Z,19.05
2022-10-26T12:19:36.490Z,18.92
2022-10-26T12:22:07.144Z,19.06
2022-10-26T12:24:38.878Z,19.18
2022-10-26T12:27:09.162Z,19.22
2022-10-26T12:29:40.940Z,18.91
2022-10-26T12:32:52.205Z,19.03
2022-10-26T12:35:45.458Z,19.00
2022-10-26T12:38:53.786Z,19.16
2022-10-26T12:41:26.087Z,19.33
2022-10-26T12:44:02.818Z,19.28
2022-10-26T12:46:45.208Z,19.18
2022-10-26T12:49:57.738Z,19.22
2022-10-26T12:52:50.522Z,19.23
2022-10-26T12:55:53.462Z,19.19
2022-10-26T12:58:49.769Z,19.28
2022-10-26T13:01:52.350Z,19.33
2022-10-26T13:04:45.447Z,19.43
2022-10-26T13:07:23.650Z,19.31
2022-10-26T13:10:23.229Z,19.22
2022-10-26T13:12:56.607Z,19.22
2022-10-26T13:15:27.557Z,19.35
2022-10-26T13:18:02.495Z,19.25
2022-10-26T13:20:33.942Z,19.43
2022-10-26T13:23:04.888Z,19.35
2022-10-26T13:25:37.253Z,19.35
2022-10-26T13:28:13.261Z,19.43
2022-10-26T13:30:50.688Z,19.35
2022-10-26T13:33:31.256Z,19.39
2022-10-26T13:36:05.322Z,19.37
2022-10-26T13:38:37.527Z,19.33
2022-10-26T13:41:21.929Z,19.34
2022-10-26T13:43:53.740Z,19.30
2022-10-26T13:46:29.218Z,19.31
2022-10-26T13:49:07.572Z,19.41
2022-10-26T13:51:46.101Z,19.45
2022-10-26T13:54:26.519Z,19.39
2022-10-26T13:57:14.044Z,19.27
2022-10-26T13:59:49.847Z,19.27
2022-10-26T14:02:26.903Z,19.24
2022-10-26T14:05:03.117Z,19.14
2022-10-26T14:07:39.774Z,19.01
2022-10-26T14:10:09.876Z,18.98
2022-10-26T14:12:42.192Z,18.78
2022-10-26T14:15:12.967Z,18.75
2022-10-26T14:17:42.558Z,18.68
2022-10-26T14:20:21.425Z,18.61
2022-10-26T14:22:51.105Z,18.61
2022-10-26T14:25:35.821Z,18.58
2022-10-26T14:28:28.713Z,18.64
2022-10-26T14:31:16.735Z,18.66
2022-10-26T14:33:49.349Z,18.63
2022-10-26T14:36:20.380Z,18.56
2022-10-26T14:38:52.393Z,18.57
2022-10-26T14:41:22.767Z,18.47
2022-10-26T14:43:56.613Z,18.55
2022-10-26T14:46:26.488Z,18.54
2022-10-26T14:48:59.509Z,18.53
2022-10-26T14:51:30.839Z,18.52
2022-10-26T14:54:02.630Z,18.50
2022-10-26T14:56:34.581Z,18.54
2022-10-26T14:59:15.047Z,18.46
2022-10-26T15:01:52.589Z,18.48
2022-10-26T15:04:34.936Z,18.44
2022-10-26T15:07:11.450Z,18.46
2022-10-26T15:09:46.271Z,18.47
2022-10-26T15:12:32.265Z,18.46
2022-10-26T15:18:23.775Z,18.51
2022-10-26T15:20:54.740Z,18.43
2022-10-26T15:23:26.202Z,18.40
2022-10-26T15:25:58.989Z,18.42
2022-10-26T15:28:33.254Z,18.34
2022-10-26T15:31:08.174Z,18.32
2022-10-26T15:33:38.434Z,18.28
2022-10-26T15:36:18.663Z,18.27
2022-10-26T15:38:49.493Z,18.26
2022-10-26T15:41:23.734Z,18.29
2022-10-26T15:43:56.805Z,18.19
2022-10-26T15:46:33.190Z,18.17
2022-10-26T15:49:05.545Z,18.13
2022-10-26T15:51:35.491Z,18.08
2022-10-26T15:54:07.367Z,18.05
2022-10-26T15:56:36.940Z,17.98
2022-10-26T15:59:06.550Z,17.92
2022-10-26T16:01:38.782Z,17.94
2022-10-26T16:04:08.466Z,17.86
2022-10-26T16:06:39.334Z,17.83
2022-10-26T16:09:10.376Z,17.79
2022-10-26T16:11:39.975Z,17.75
2022-10-26T16:14:09.844Z,17.72
2022-10-26T16:16:42.420Z,17.73
2022-10-26T16:22:03.391Z,17.59
2022-10-26T16:24:34.655Z,17.49
2022-10-26T16:27:04.248Z,17.42
2022-10-26T16:29:34.201Z,17.32
2022-10-26T16:32:06.380Z,17.36
2022-10-26T16:34:35.960Z,17.27
2022-10-26T16:37:05.524Z,17.20
2022-10-26T16:39:35.193Z,17.13
2022-10-26T16:42:05.017Z,17.10
2022-10-26T16:44:35.133Z,17.02
2022-10-26T16:47:07.610Z,17.00
2022-10-26T16:49:38.665Z,16.96
2022-10-26T16:52:08.271Z,16.86
2022-10-26T16:54:37.921Z,16.88
2022-10-26T16:57:07.843Z,16.85
2022-10-26T16:59:37.538Z,16.82
2022-10-26T17:02:10.080Z,16.82
2022-10-26T17:04:39.842Z,16.85
2022-10-26T17:07:09.543Z,16.76
2022-10-26T17:09:41.497Z,16.76
2022-10-26T17:12:11.273Z,16.65
2022-10-26T17:14:41.254Z,16.65
2022-10-26T17:17:13.362Z,16.59
2022-10-26T17:19:42.922Z,16.55
2022-10-26T17:22:12.515Z,16.57
2022-10-26T17:24:42.155Z,16.51
2022-10-26T17:27:11.806Z,16.60
2022-10-26T17:29:41.403Z,16.58
2022-10-26T17:32:13.536Z,16.60
2022-10-26T17:34:43.336Z,16.55
2022-10-26T17:37:12.996Z,16.53
2022-10-26T17:39:42.645Z,16.50
2022-10-26T17:42:12.316Z,16.43
2022-10-26T17:44:41.917Z,16.40
2022-10-26T17:47:14.098Z,16.39
2022-10-26T17:49:43.603Z,16.39
2022-10-26T17:52:13.401Z,16.34
2022-10-26T17:54:42.945Z,16.29
2022-10-26T17:57:12.546Z,16.23
2022-10-26T17:59:42.132Z,16.20
2022-10-26T18:02:14.573Z,16.11
2022-10-26T18:04:46.131Z,16.07
2022-10-26T18:07:15.822Z,16.01
2022-10-26T18:09:45.606Z,15.91
2022-10-26T18:12:15.119Z,15.86
2022-10-26T18:14:44.700Z,15.82
2022-10-26T18:17:17.457Z,15.79
2022-10-26T18:19:50.188Z,15.72
2022-10-26T18:22:19.763Z,15.63
2022-10-26T18:24:49.381Z,15.53
2022-10-26T18:27:20.338Z,15.45
2022-10-26T18:29:50.284Z,15.33
2022-10-26T18:32:22.474Z,15.32
2022-10-26T18:34:52.087Z,15.29
2022-10-26T18:37:21.752Z,15.25
2022-10-26T18:39:51.517Z,15.22
2022-10-26T18:42:21.138Z,15.25
2022-10-26T18:44:50.995Z,15.23
2022-10-26T18:47:23.407Z,15.21
2022-10-26T18:49:53.091Z,15.24
2022-10-26T18:52:23.901Z,15.25
2022-10-26T18:54:53.665Z,15.20
2022-10-26T18:57:27.026Z,15.23
2022-10-26T18:59:57.557Z,15.26
2022-10-26T19:02:29.912Z,15.24
2022-10-26T19:04:59.507Z,15.29
2022-10-26T19:07:29.128Z,15.21
2022-10-26T19:09:58.825Z,15.25
2022-10-26T19:12:28.425Z,15.19
2022-10-26T19:14:58.140Z,15.14
2022-10-26T19:17:30.421Z,15.04
2022-10-26T19:20:00.973Z,14.99
2022-10-26T19:22:30.820Z,14.91
2022-10-26T19:25:00.501Z,14.81
2022-10-26T19:27:30.110Z,14.70
2022-10-26T19:29:59.716Z,14.59
2022-10-26T19:32:32.586Z,14.48
2022-10-26T19:35:02.158Z,14.40
2022-10-26T19:37:32.648Z,14.32
2022-10-26T19:40:02.966Z,14.26
2022-10-26T19:42:32.664Z,14.24
2022-10-26T19:45:02.510Z,14.24
2022-10-26T19:47:34.738Z,14.24
2022-10-26T19:50:06.191Z,14.29
2022-10-26T19:55:12.268Z,14.24
2022-10-26T19:57:42.711Z,14.24
2022-10-26T20:00:13.553Z,14.20
2022-10-26T20:02:45.765Z,14.24
2022-10-26T20:05:15.455Z,14.24
2022-10-26T20:07:45.099Z,14.18
2022-10-26T20:10:14.774Z,14.15
2022-10-26T20:12:44.682Z,14.25
2022-10-26T20:15:14.424Z,14.32
2022-10-26T20:17:46.588Z,14.40
2022-10-26T20:20:16.137Z,14.46
2022-10-26T20:22:46.486Z,14.48
2022-10-26T20:25:16.373Z,14.51
2022-10-26T20:27:45.957Z,14.51
2022-10-26T20:30:16.229Z,14.47
2022-10-26T20:32:48.486Z,14.46
2022-10-26T20:35:18.366Z,14.56
2022-10-26T20:37:49.200Z,14.56
2022-10-26T20:40:21.846Z,14.53
2022-10-26T20:42:52.822Z,14.53
2022-10-26T20:45:29.123Z,14.59
2022-10-26T20:48:03.390Z,14.59
2022-10-26T20:50:34.172Z,14.53
2022-10-26T20:53:07.136Z,14.65
2022-10-26T20:55:43.468Z,14.58
2022-10-26T20:58:20.306Z,14.50
2022-10-26T21:00:55.851Z,14.54
2022-10-26T21:03:28.135Z,14.44
2022-10-26T21:05:58.900Z,14.49
2022-10-26T21:08:28.537Z,14.45
2022-10-26T21:10:58.790Z,14.44
2022-10-26T21:13:28.502Z,14.43
2022-10-26T21:15:58.070Z,14.40
2022-10-26T21:18:30.323Z,14.40
2022-10-26T21:21:00.346Z,14.40
2022-10-26T21:23:33.290Z,14.35
2022-10-26T21:26:03.301Z,14.44
2022-10-26T21:28:37.632Z,14.51
2022-10-26T21:31:09.457Z,14.46
2022-10-26T21:33:42.083Z,14.42
2022-10-26T21:36:14.075Z,14.49
2022-10-26T21:38:44.993Z,14.49
2022-10-26T21:41:16.241Z,14.55
2022-10-26T21:43:47.388Z,14.51
2022-10-26T21:46:18.730Z,14.53
2022-10-26T21:48:51.409Z,14.60
2022-10-26T21:51:23.052Z,14.77
2022-10-26T21:53:54.511Z,14.70
2022-10-26T21:56:25.243Z,14.76
2022-10-26T21:58:55.317Z,14.80
2022-10-26T22:01:25.960Z,14.86
2022-10-26T22:03:58.311Z,14.85
2022-10-26T22:06:28.034Z,14.98
2022-10-26T22:08:57.682Z,14.95
2022-10-26T22:11:27.658Z,14.98
2022-10-26T22:13:57.509Z,15.04
2022-10-26T22:16:28.860Z,15.00
2022-10-26T22:19:05.142Z,14.99
2022-10-26T22:21:37.439Z,15.04
2022-10-26T22:24:07.458Z,15.07
2022-10-26T22:26:39.378Z,15.04
2022-10-26T22:29:09.231Z,15.03
2022-10-26T22:31:42.690Z,15.03
2022-10-26T22:34:18.112Z,15.06
2022-10-26T22:36:47.939Z,15.04
2022-10-26T22:39:17.929Z,15.09
2022-10-26T22:41:51.321Z,15.13
2022-10-26T22:44:21.181Z,15.12
2022-10-26T22:46:50.782Z,15.08
2022-10-26T22:49:23.360Z,15.07
2022-10-26T22:51:52.965Z,15.03
2022-10-26T22:54:22.690Z,15.02
2022-10-26T22:56:52.513Z,15.00
2022-10-26T22:59:22.524Z,15.00
2022-10-26T23:01:52.318Z,14.99
2022-10-26T23:04:25.111Z,14.94
2022-10-26T23:06:57.605Z,14.86
2022-10-26T23:09:27.193Z,14.81
2022-10-26T23:11:56.912Z,14.78
2022-10-26T23:14:26.727Z,14.77
2022-10-26T23:16:56.254Z,14.75
2022-10-26T23:19:28.448Z,14.68
2022-10-26T23:21:57.985Z,14.62
2022-10-26T23:24:27.542Z,14.59
2022-10-26T23:26:57.220Z,14.55
2022-10-26T23:29:26.902Z,14.52
2022-10-26T23:31:56.450Z,14.50
2022-10-26T23:34:28.605Z,14.49
2022-10-26T23:36:58.159Z,14.49
2022-10-26T23:39:27.798Z,14.48
2022-10-26T23:41:57.418Z,14.48
2022-10-26T23:44:27.098Z,14.48
2022-10-26T23:46:56.661Z,14.52
2022-10-26T23:49:28.843Z,14.50
2022-10-26T23:51:58.451Z,14.52
2022-10-26T23:54:28.183Z,14.55
2022-10-26T23:56:57.895Z,14.52
2022-10-26T23:59:27.537Z,14.47
